sensor_id;sensor_type;location;lat;lon;timestamp;P1;durP1;ratioP1;P2;durP2;ratioP2
23336;SDS011;11840;45.414;12.372;2023-08-24T00:02:06;9.50;;;6.93;;
23336;SDS011;11840;45.414;12.372;2023-08-24T00:04:32;9.13;;;6.82;;
23336;SDS011;11840;45.414;12.372;2023-08-24T00:06:58;11.02;;;6.90;;
23336;SDS011;11840;45.414;12.372;2023-08-24T00:09:25;10.30;;;7.22;;
23336;SDS011;11840;45.414;12.372;2023-08-24T00:11:51;10.02;;;7.15;;
23336;SDS011;11840;45.414;12.372;2023-08-24T00:14:17;8.57;;;6.93;;
23336;SDS011;11840;45.414;12.372;2023-08-24T00:16:44;9.98;;;6.90;;
23336;SDS011;11840;45.414;12.372;2023-08-24T00:19:10;11.40;;;7.50;;
23336;SDS011;11840;45.414;12.372;2023-08-24T00:21:36;10.95;;;6.90;;
23336;SDS011;11840;45.414;12.372;2023-08-24T00:24:02;8.13;;;6.43;;
23336;SDS011;11840;45.414;12.372;2023-08-24T00:26:28;7.95;;;6.85;;
23336;SDS011;11840;45.414;12.372;2023-08-24T00:28:54;8.27;;;7.18;;
23336;SDS011;11840;45.414;12.372;2023-08-24T00:31:20;9.00;;;7.30;;
23336;SDS011;11840;45.414;12.372;2023-08-24T00:33:47;8.15;;;7.18;;
23336;SDS011;11840;45.414;12.372;2023-08-24T00:36:13;9.52;;;7.03;;
23336;SDS011;11840;45.414;12.372;2023-08-24T00:38:38;10.18;;;6.97;;
23336;SDS011;11840;45.414;12.372;2023-08-24T00:41:04;9.70;;;6.95;;
23336;SDS011;11840;45.414;12.372;2023-08-24T00:43:30;9.43;;;7.22;;
23336;SDS011;11840;45.414;12.372;2023-08-24T00:45:56;9.55;;;7.07;;
23336;SDS011;11840;45.414;12.372;2023-08-24T00:48:22;8.45;;;6.72;;
23336;SDS011;11840;45.414;12.372;2023-08-24T00:50:53;10.27;;;7.40;;
23336;SDS011;11840;45.414;12.372;2023-08-24T00:53:19;8.13;;;7.20;;
23336;SDS011;11840;45.414;12.372;2023-08-24T00:55:46;11.23;;;7.00;;
23336;SDS011;11840;45.414;12.372;2023-08-24T00:58:13;10.02;;;7.00;;
23336;SDS011;11840;45.414;12.372;2023-08-24T01:00:39;11.73;;;7.40;;
23336;SDS011;11840;45.414;12.372;2023-08-24T01:03:07;11.40;;;6.78;;
23336;SDS011;11840;45.414;12.372;2023-08-24T01:05:34;8.48;;;7.13;;
23336;SDS011;11840;45.414;12.372;2023-08-24T01:08:00;10.55;;;7.40;;
23336;SDS011;11840;45.414;12.372;2023-08-24T01:10:27;9.85;;;6.82;;
23336;SDS011;11840;45.414;12.372;2023-08-24T01:13:06;8.73;;;6.88;;
23336;SDS011;11840;45.414;12.372;2023-08-24T01:15:45;8.10;;;7.05;;
23336;SDS011;11840;45.414;12.372;2023-08-24T01:18:11;12.70;;;7.32;;
23336;SDS011;11840;45.414;12.372;2023-08-24T01:20:40;8.95;;;7.18;;
23336;SDS011;11840;45.414;12.372;2023-08-24T01:25:54;11.70;;;7.05;;
23336;SDS011;11840;45.414;12.372;2023-08-24T06:39:10;9.10;;;7.90;;
23336;SDS011;11840;45.414;12.372;2023-08-24T06:41:36;9.50;;;7.50;;
23336;SDS011;11840;45.414;12.372;2023-08-24T06:44:06;9.50;;;6.97;;
23336;SDS011;11840;45.414;12.372;2023-08-24T06:46:32;10.27;;;7.10;;
23336;SDS011;11840;45.414;12.372;2023-08-24T06:48:58;9.35;;;7.25;;
23336;SDS011;11840;45.414;12.372;2023-08-24T06:51:25;9.05;;;6.78;;
23336;SDS011;11840;45.414;12.372;2023-08-24T06:53:51;8.90;;;7.03;;
23336;SDS011;11840;45.414;12.372;2023-08-24T06:56:16;9.30;;;7.22;;
23336;SDS011;11840;45.414;12.372;2023-08-24T06:58:43;8.23;;;6.88;;
23336;SDS011;11840;45.414;12.372;2023-08-24T07:01:10;8.98;;;6.93;;
23336;SDS011;11840;45.414;12.372;2023-08-24T07:03:36;8.45;;;6.85;;
23336;SDS011;11840;45.414;12.372;2023-08-24T07:06:05;11.80;;;7.03;;
23336;SDS011;11840;45.414;12.372;2023-08-24T07:08:31;9.00;;;7.53;;
23336;SDS011;11840;45.414;12.372;2023-08-24T07:10:57;9.55;;;7.18;;
23336;SDS011;11840;45.414;12.372;2023-08-24T07:13:23;11.27;;;7.93;;
23336;SDS011;11840;45.414;12.372;2023-08-24T07:15:49;9.18;;;6.95;;
23336;SDS011;11840;45.414;12.372;2023-08-24T07:18:15;8.00;;;6.90;;
23336;SDS011;11840;45.414;12.372;2023-08-24T07:20:40;9.70;;;6.88;;
23336;SDS011;11840;45.414;12.372;2023-08-24T07:23:07;7.80;;;6.88;;
23336;SDS011;11840;45.414;12.372;2023-08-24T07:25:32;7.95;;;7.07;;
23336;SDS011;11840;45.414;12.372;2023-08-24T07:28:00;9.68;;;7.47;;
23336;SDS011;11840;45.414;12.372;2023-08-24T07:30:27;9.77;;;7.75;;
23336;SDS011;11840;45.414;12.372;2023-08-24T07:32:53;12.38;;;7.45;;
23336;SDS011;11840;45.414;12.372;2023-08-24T07:35:19;9.05;;;6.60;;
23336;SDS011;11840;45.414;12.372;2023-08-24T07:37:49;8.93;;;7.78;;
23336;SDS011;11840;45.414;12.372;2023-08-24T07:40:15;10.75;;;7.38;;
23336;SDS011;11840;45.414;12.372;2023-08-24T07:42:47;10.93;;;7.07;;
23336;SDS011;11840;45.414;12.372;2023-08-24T07:45:14;9.65;;;7.35;;
23336;SDS011;11840;45.414;12.372;2023-08-24T07:47:40;14.57;;;7.78;;
23336;SDS011;11840;45.414;12.372;2023-08-24T07:50:07;9.88;;;7.07;;
23336;SDS011;11840;45.414;12.372;2023-08-24T07:52:33;10.57;;;7.63;;
23336;SDS011;11840;45.414;12.372;2023-08-24T07:54:59;10.88;;;7.70;;
23336;SDS011;11840;45.414;12.372;2023-08-24T07:57:29;11.52;;;7.47;;
23336;SDS011;11840;45.414;12.372;2023-08-24T07:59:55;10.93;;;7.80;;
23336;SDS011;11840;45.414;12.372;2023-08-24T08:02:21;11.55;;;7.25;;
23336;SDS011;11840;45.414;12.372;2023-08-24T08:04:48;15.55;;;8.40;;
23336;SDS011;11840;45.414;12.372;2023-08-24T08:07:14;9.32;;;7.28;;
23336;SDS011;11840;45.414;12.372;2023-08-24T08:09:41;10.65;;;8.23;;
23336;SDS011;11840;45.414;12.372;2023-08-24T08:12:06;11.27;;;9.55;;
23336;SDS011;11840;45.414;12.372;2023-08-24T08:14:33;11.73;;;8.32;;
23336;SDS011;11840;45.414;12.372;2023-08-24T08:17:00;11.82;;;8.02;;
23336;SDS011;11840;45.414;12.372;2023-08-24T08:19:26;8.80;;;7.07;;
23336;SDS011;11840;45.414;12.372;2023-08-24T08:21:53;14.30;;;8.35;;
23336;SDS011;11840;45.414;12.372;2023-08-24T08:24:19;13.30;;;8.10;;
23336;SDS011;11840;45.414;12.372;2023-08-24T08:26:44;11.02;;;8.07;;
23336;SDS011;11840;45.414;12.372;2023-08-24T08:29:10;12.55;;;8.07;;
23336;SDS011;11840;45.414;12.372;2023-08-24T08:31:36;10.43;;;7.82;;
23336;SDS011;11840;45.414;12.372;2023-08-24T08:34:02;9.88;;;7.50;;
23336;SDS011;11840;45.414;12.372;2023-08-24T08:36:30;10.10;;;7.90;;
23336;SDS011;11840;45.414;12.372;2023-08-24T08:38:57;9.90;;;7.60;;
23336;SDS011;11840;45.414;12.372;2023-08-24T08:41:23;12.75;;;7.38;;
23336;SDS011;11840;45.414;12.372;2023-08-24T08:43:52;9.60;;;7.57;;
23336;SDS011;11840;45.414;12.372;2023-08-24T08:46:18;10.68;;;7.72;;
23336;SDS011;11840;45.414;12.372;2023-08-24T08:48:45;14.32;;;7.68;;
23336;SDS011;11840;45.414;12.372;2023-08-24T08:51:12;11.43;;;7.97;;
23336;SDS011;11840;45.414;12.372;2023-08-24T08:53:39;12.80;;;8.00;;
23336;SDS011;11840;45.414;12.372;2023-08-24T08:56:05;11.50;;;8.05;;
23336;SDS011;11840;45.414;12.372;2023-08-24T08:58:32;12.27;;;8.07;;
23336;SDS011;11840;45.414;12.372;2023-08-24T09:00:59;10.63;;;7.72;;
23336;SDS011;11840;45.414;12.372;2023-08-24T09:03:29;12.45;;;7.53;;
23336;SDS011;11840;45.414;12.372;2023-08-24T09:05:56;10.27;;;7.50;;
23336;SDS011;11840;45.414;12.372;2023-08-24T09:08:22;8.77;;;7.88;;
23336;SDS011;11840;45.414;12.372;2023-08-24T09:10:48;8.05;;;7.20;;
23336;SDS011;11840;45.414;12.372;2023-08-24T09:13:14;11.90;;;7.82;;
23336;SDS011;11840;45.414;12.372;2023-08-24T09:15:40;9.13;;;8.10;;
23336;SDS011;11840;45.414;12.372;2023-08-24T09:18:06;8.23;;;7.30;;
23336;SDS011;11840;45.414;12.372;2023-08-24T09:20:33;9.40;;;7.63;;
23336;SDS011;11840;45.414;12.372;2023-08-24T09:22:59;12.98;;;7.90;;
23336;SDS011;11840;45.414;12.372;2023-08-24T09:25:25;13.48;;;8.40;;
23336;SDS011;11840;45.414;12.372;2023-08-24T09:30:23;9.85;;;7.80;;
23336;SDS011;11840;45.414;12.372;2023-08-24T09:32:53;14.45;;;7.40;;
23336;SDS011;11840;45.414;12.372;2023-08-24T09:35:20;9.77;;;8.32;;
23336;SDS011;11840;45.414;12.372;2023-08-24T18:57:55;14.73;;;13.32;;
23336;SDS011;11840;45.414;12.372;2023-08-24T19:00:21;14.57;;;13.15;;
23336;SDS011;11840;45.414;12.372;2023-08-24T19:02:47;16.10;;;14.13;;
23336;SDS011;11840;45.414;12.372;2023-08-24T19:05:13;15.57;;;13.93;;
23336;SDS011;11840;45.414;12.372;2023-08-24T19:07:39;16.23;;;14.52;;
23336;SDS011;11840;45.414;12.372;2023-08-24T19:10:05;14.32;;;12.95;;
23336;SDS011;11840;45.414;12.372;2023-08-24T19:12:31;15.90;;;14.15;;
23336;SDS011;11840;45.414;12.372;2023-08-24T19:14:57;15.15;;;13.55;;
23336;SDS011;11840;45.414;12.372;2023-08-24T19:17:23;14.80;;;13.38;;
23336;SDS011;11840;45.414;12.372;2023-08-24T19:19:48;15.07;;;13.30;;
23336;SDS011;11840;45.414;12.372;2023-08-24T19:22:14;14.70;;;13.35;;
23336;SDS011;11840;45.414;12.372;2023-08-24T19:24:41;15.23;;;13.73;;
23336;SDS011;11840;45.414;12.372;2023-08-24T19:27:07;15.85;;;14.25;;
23336;SDS011;11840;45.414;12.372;2023-08-24T19:29:34;15.00;;;13.27;;
23336;SDS011;11840;45.414;12.372;2023-08-24T19:32:00;14.70;;;13.30;;
23336;SDS011;11840;45.414;12.372;2023-08-24T19:34:26;16.80;;;14.02;;
23336;SDS011;11840;45.414;12.372;2023-08-24T19:36:52;15.98;;;14.48;;
23336;SDS011;11840;45.414;12.372;2023-08-24T19:39:17;16.30;;;14.45;;
23336;SDS011;11840;45.414;12.372;2023-08-24T19:41:43;15.60;;;14.10;;
23336;SDS011;11840;45.414;12.372;2023-08-24T19:44:11;15.20;;;13.70;;
23336;SDS011;11840;45.414;12.372;2023-08-24T19:46:37;16.27;;;14.73;;
23336;SDS011;11840;45.414;12.372;2023-08-24T19:49:03;16.30;;;13.88;;
23336;SDS011;11840;45.414;12.372;2023-08-24T19:51:30;15.30;;;13.80;;
23336;SDS011;11840;45.414;12.372;2023-08-24T19:53:56;15.93;;;13.93;;
23336;SDS011;11840;45.414;12.372;2023-08-24T19:56:23;16.30;;;13.45;;
23336;SDS011;11840;45.414;12.372;2023-08-24T19:58:50;15.85;;;14.23;;
23336;SDS011;11840;45.414;12.372;2023-08-24T20:01:16;15.18;;;13.77;;
23336;SDS011;11840;45.414;12.372;2023-08-24T20:03:42;15.68;;;13.90;;
23336;SDS011;11840;45.414;12.372;2023-08-24T20:06:20;15.60;;;13.98;;
23336;SDS011;11840;45.414;12.372;2023-08-24T20:08:47;15.60;;;14.00;;
23336;SDS011;11840;45.414;12.372;2023-08-24T20:11:12;15.65;;;13.48;;
23336;SDS011;11840;45.414;12.372;2023-08-24T20:13:39;15.18;;;13.73;;
23336;SDS011;11840;45.414;12.372;2023-08-24T20:16:05;15.57;;;13.90;;
23336;SDS011;11840;45.414;12.372;2023-08-24T20:18:31;16.02;;;13.85;;
23336;SDS011;11840;45.414;12.372;2023-08-24T20:20:57;15.88;;;14.18;;
23336;SDS011;11840;45.414;12.372;2023-08-24T20:23:24;15.25;;;13.65;;
23336;SDS011;11840;45.414;12.372;2023-08-24T20:25:50;15.57;;;14.00;;
23336;SDS011;11840;45.414;12.372;2023-08-24T20:28:18;15.45;;;13.95;;
23336;SDS011;11840;45.414;12.372;2023-08-24T20:30:44;15.82;;;14.23;;
23336;SDS011;11840;45.414;12.372;2023-08-24T20:33:11;15.10;;;13.60;;
